Time;durP1;ratioP1;P1;durP2;ratioP2;P2;SDS_P1;SDS_P2;PMS_P1;PMS_P2;Temp;Humidity;BMP_temperature;BMP_pressure;BME280_temperature;BME280_humidity;BME280_pressure;Samples;Min_cycle;Max_cycle;Signal;HPM_P1;HPM_P2
2021/12/12 00:00:49;;;;;;;81.30;38.08;;;3.90;99.90;;;;;;4939168;28;20030;-66
2021/12/12 00:03:32;;;;;;;60.25;35.55;;;4.00;99.90;;;;;;4943118;28;20342;-66
2021/12/12 00:05:59;;;;;;;71.65;34.75;;;4.00;99.90;;;;;;4946964;28;20066;-66
2021/12/12 00:08:26;;;;;;;71.07;37.53;;;3.90;99.90;;;;;;4968259;28;20539;-65
2021/12/12 00:10:58;;;;;;;75.20;37.50;;;4.00;99.90;;;;;;4961088;28;20478;-66
2021/12/12 00:13:35;;;;;;;74.65;36.35;;;4.00;99.90;;;;;;4961416;28;20106;-66
2021/12/12 00:16:01;;;;;;;69.50;35.63;;;4.00;99.90;;;;;;4958506;28;20442;-66
2021/12/12 00:18:27;;;;;;;58.00;33.08;;;4.00;99.90;;;;;;4960393;28;20063;-66
2021/12/12 00:20:54;;;;;;;75.55;38.95;;;4.10;99.90;;;;;;4962665;28;20503;-66
2021/12/12 00:23:20;;;;;;;67.05;35.10;;;4.00;99.90;;;;;;4963065;28;20245;-66
2021/12/12 00:25:49;;;;;;;60.45;34.67;;;4.10;99.90;;;;;;4958560;28;20491;-66
2021/12/12 00:28:19;;;;;;;66.50;34.30;;;4.10;99.90;;;;;;4958405;28;20154;-66
2021/12/12 00:30:46;;;;;;;54.55;32.92;;;4.10;99.90;;;;;;4939117;28;20344;-65
2021/12/12 00:33:13;;;;;;;65.07;33.00;;;4.10;99.90;;;;;;4964182;28;20089;-66
2021/12/12 00:35:40;;;;;;;61.20;36.03;;;4.10;99.90;;;;;;4958181;28;20039;-66
2021/12/12 00:38:12;;;;;;;59.83;33.33;;;4.10;99.90;;;;;;4957841;28;20046;-65
2021/12/12 00:40:43;;;;;;;64.30;33.55;;;4.10;99.90;;;;;;4940810;28;20054;-66
2021/12/12 00:43:19;;;;;;;67.35;34.65;;;4.10;99.90;;;;;;4967456;28;20430;-66
2021/12/12 00:45:45;;;;;;;57.08;32.10;;;4.10;99.90;;;;;;4958033;28;20066;-66
2021/12/12 00:48:11;;;;;;;55.35;33.45;;;4.10;99.90;;;;;;4965138;28;20046;-66
2021/12/12 00:50:40;;;;;;;66.55;34.75;;;4.10;99.90;;;;;;4959647;28;20569;-66
2021/12/12 00:53:08;;;;;;;64.65;35.35;;;4.20;99.90;;;;;;4962756;28;20035;-66
2021/12/12 00:55:38;;;;;;;59.63;33.67;;;4.10;99.90;;;;;;4940598;28;20038;-66
2021/12/12 00:58:06;;;;;;;62.72;32.97;;;4.10;99.90;;;;;;4964625;28;20074;-66
2021/12/12 01:00:37;;;;;;;63.90;34.30;;;4.10;99.90;;;;;;4946471;28;20051;-66
2021/12/12 01:03:04;;;;;;;55.90;34.65;;;4.20;99.90;;;;;;4959282;28;20050;-66
2021/12/12 01:05:31;;;;;;;57.17;32.90;;;4.20;99.90;;;;;;4962826;28;20049;-66
2021/12/12 01:07:57;;;;;;;62.80;34.60;;;4.20;99.90;;;;;;4955093;28;20617;-66
2021/12/12 01:10:47;;;;;;;62.47;32.53;;;4.20;99.90;;;;;;4963089;28;20138;-66
2021/12/12 01:13:14;;;;;;;56.13;33.47;;;4.20;99.90;;;;;;4960210;28;20399;-66
2021/12/12 01:16:05;;;;;;;58.67;34.08;;;4.20;99.90;;;;;;4966517;28;20129;-66
2021/12/12 01:18:37;;;;;;;53.38;30.80;;;4.20;99.90;;;;;;4955884;28;20055;-66
2021/12/12 01:21:14;;;;;;;51.17;30.58;;;4.20;99.90;;;;;;4962578;28;20510;-66
2021/12/12 01:23:50;;;;;;;57.75;32.08;;;4.20;99.90;;;;;;4952699;28;20499;-66
2021/12/12 01:26:17;;;;;;;52.35;31.30;;;4.20;99.90;;;;;;4941740;28;20050;-66
2021/12/12 01:28:50;;;;;;;53.78;30.55;;;4.20;99.90;;;;;;4955249;28;20043;-66
2021/12/12 01:31:24;;;;;;;54.10;31.75;;;4.20;99.90;;;;;;4964462;28;20126;-66
2021/12/12 01:33:58;;;;;;;54.90;30.35;;;4.20;99.90;;;;;;4959111;28;20027;-65
2021/12/12 01:36:29;;;;;;;55.67;29.70;;;4.30;99.90;;;;;;4945320;29;20537;-65
2021/12/12 01:39:00;;;;;;;53.17;29.92;;;4.30;99.90;;;;;;4942998;28;20121;-65
2021/12/12 01:41:31;;;;;;;46.08;29.50;;;4.30;99.90;;;;;;4962878;28;20039;-65
2021/12/12 01:44:11;;;;;;;55.53;30.67;;;4.30;99.90;;;;;;4956227;28;20109;-66
2021/12/12 01:46:45;;;;;;;58.17;29.05;;;4.30;99.90;;;;;;4962122;28;20116;-66
2021/12/12 01:49:18;;;;;;;48.83;27.92;;;4.30;99.90;;;;;;4959886;28;20105;-66
2021/12/12 01:51:46;;;;;;;47.23;28.53;;;4.40;99.90;;;;;;4922102;29;20402;-66
2021/12/12 01:54:15;;;;;;;62.70;30.08;;;4.40;99.90;;;;;;4939256;28;20042;-67
2021/12/12 01:56:50;;;;;;;57.75;28.98;;;4.40;99.90;;;;;;4957031;28;20484;-67
2021/12/12 01:59:18;;;;;;;49.97;28.30;;;4.40;99.90;;;;;;4941582;28;20050;-67
2021/12/12 02:01:51;;;;;;;53.10;27.50;;;4.40;99.90;;;;;;4949180;28;20046;-67
2021/12/12 02:04:25;;;;;;;56.35;28.73;;;4.40;99.90;;;;;;4959016;28;20728;-67
2021/12/12 02:06:53;;;;;;;53.80;27.70;;;4.40;99.90;;;;;;4960518;28;20062;-66
2021/12/12 02:09:20;;;;;;;56.78;26.58;;;4.40;99.90;;;;;;4958072;28;20130;-66
2021/12/12 02:11:48;;;;;;;57.05;27.92;;;4.40;99.90;;;;;;4958609;28;20039;-66
2021/12/12 02:14:17;;;;;;;49.72;27.40;;;4.40;99.90;;;;;;4957264;28;20049;-66
2021/12/12 02:16:51;;;;;;;58.33;27.75;;;4.40;99.90;;;;;;4964493;28;20038;-67
2021/12/12 02:19:18;;;;;;;41.42;23.70;;;4.50;99.90;;;;;;4942566;28;20043;-67
2021/12/12 02:22:05;;;;;;;47.47;24.85;;;4.50;99.90;;;;;;4942179;28;20039;-67
2021/12/12 02:35:43;;;;;;;52.40;24.20;;;4.50;99.90;;;;;;4943123;28;20041;-67
2021/12/12 02:38:13;;;;;;;49.15;23.80;;;4.50;99.90;;;;;;4963613;28;20051;-67
2021/12/12 02:40:45;;;;;;;44.97;21.98;;;4.60;99.90;;;;;;4959943;28;20039;-66
2021/12/12 02:43:18;;;;;;;42.35;22.58;;;4.60;99.90;;;;;;4965237;28;20046;-66
2021/12/12 02:45:44;;;;;;;48.63;22.83;;;4.60;99.90;;;;;;4940840;28;20087;-66
2021/12/12 02:48:16;;;;;;;40.53;21.13;;;4.60;99.90;;;;;;4946033;28;20031;-67
2021/12/12 02:50:46;;;;;;;47.10;22.58;;;4.60;99.90;;;;;;4961689;28;20435;-67
2021/12/12 02:53:17;;;;;;;44.17;23.67;;;4.60;99.90;;;;;;4960329;28;20061;-67
2021/12/12 02:55:48;;;;;;;41.88;21.00;;;4.60;99.90;;;;;;4942695;28;20042;-66
2021/12/12 02:58:20;;;;;;;44.33;19.95;;;4.70;99.90;;;;;;4962065;28;20110;-66
2021/12/12 03:01:06;;;;;;;40.33;20.52;;;4.60;99.90;;;;;;4957143;28;20419;-67
2021/12/12 03:03:35;;;;;;;45.92;21.73;;;4.70;99.90;;;;;;4954002;28;20043;-66
2021/12/12 03:06:02;;;;;;;40.65;20.33;;;4.60;99.90;;;;;;4960139;28;20133;-66
2021/12/12 03:08:28;;;;;;;44.28;21.48;;;4.60;99.90;;;;;;4969017;28;20170;-66
2021/12/12 03:10:55;;;;;;;38.55;19.98;;;4.60;99.90;;;;;;4941118;28;20126;-67
2021/12/12 03:13:23;;;;;;;42.38;19.40;;;4.60;99.90;;;;;;4947846;28;20125;-67
2021/12/12 03:15:50;;;;;;;33.95;18.48;;;4.60;99.90;;;;;;4945312;28;20043;-67
2021/12/12 03:18:26;;;;;;;36.78;19.70;;;4.60;99.90;;;;;;4963885;28;20061;-66
2021/12/12 03:20:57;;;;;;;40.88;19.90;;;4.60;99.90;;;;;;4962622;28;20388;-67
2021/12/12 03:23:33;;;;;;;45.65;21.13;;;4.60;99.90;;;;;;4940982;28;20283;-67
2021/12/12 03:26:08;;;;;;;42.95;19.70;;;4.50;99.90;;;;;;4963286;28;20046;-67
2021/12/12 03:28:35;;;;;;;;;;;4.60;99.90;;;;;;4956689;28;20031;-67
2021/12/12 03:31:05;;;;;;;36.72;18.90;;;4.60;99.90;;;;;;4965476;28;20282;-67
2021/12/12 03:33:33;;;;;;;32.42;17.52;;;4.60;99.90;;;;;;4958562;28;20121;-67
2021/12/12 03:36:00;;;;;;;31.80;17.67;;;4.60;99.90;;;;;;4961322;28;20035;-67
2021/12/12 03:38:29;;;;;;;42.20;19.42;;;4.70;99.90;;;;;;4942191;28;20685;-67
2021/12/12 03:40:57;;;;;;;35.90;18.23;;;4.60;99.90;;;;;;4964029;28;20039;-67
2021/12/12 03:43:23;;;;;;;34.28;16.92;;;4.70;99.90;;;;;;4955721;28;20506;-67
2021/12/12 03:45:49;;;;;;;36.90;17.98;;;4.70;99.90;;;;;;4961359;28;20031;-66
2021/12/12 03:48:24;;;;;;;30.42;16.83;;;4.80;99.90;;;;;;4940815;28;20472;-67
2021/12/12 03:50:52;;;;;;;32.35;16.60;;;4.70;99.90;;;;;;4961152;28;20113;-67
2021/12/12 03:53:18;;;;;;;34.13;17.38;;;4.80;99.90;;;;;;4954866;28;20034;-67
2021/12/12 03:55:46;;;;;;;35.75;18.40;;;4.70;99.90;;;;;;4969278;28;20054;-67
2021/12/12 03:58:12;;;;;;;38.50;16.85;;;4.70;99.90;;;;;;4960912;28;20045;-67
2021/12/12 04:00:50;;;;;;;35.72;17.55;;;4.80;99.90;;;;;;4943905;28;20113;-67
2021/12/12 04:03:18;;;;;;;37.08;17.02;;;4.80;99.90;;;;;;4953299;28;20039;-67
2021/12/12 04:05:47;;;;;;;44.63;18.00;;;4.80;99.90;;;;;;4960723;28;20066;-66
2021/12/12 04:08:13;;;;;;;36.28;16.15;;;4.80;99.90;;;;;;4958759;28;20043;-67
2021/12/12 04:10:39;;;;;;;33.83;16.83;;;4.70;99.90;;;;;;4966685;28;20043;-67
2021/12/12 04:13:05;;;;;;;34.53;15.40;;;4.80;99.90;;;;;;4963768;28;20043;-67
2021/12/12 04:15:31;;;;;;;29.33;15.38;;;4.80;99.90;;;;;;4958833;28;20035;-67
2021/12/12 04:17:57;;;;;;;21.23;14.60;;;4.80;99.90;;;;;;4962207;28;20054;-67
2021/12/12 04:20:27;;;;;;;32.08;16.17;;;4.80;99.90;;;;;;4958948;28;20073;-67
2021/12/12 04:22:54;;;;;;;31.92;15.73;;;4.80;99.90;;;;;;4944714;28;20516;-67
2021/12/12 04:25:21;;;;;;;24.90;14.23;;;4.80;99.90;;;;;;4960123;28;20073;-67
2021/12/12 04:27:47;;;;;;;33.67;15.63;;;4.90;99.90;;;;;;4962616;28;20047;-67
2021/12/12 04:30:14;;;;;;;25.33;14.93;;;4.90;99.90;;;;;;4957554;28;20101;-67
2021/12/12 04:32:41;;;;;;;26.90;14.32;;;4.90;99.90;;;;;;4938908;28;20550;-67
2021/12/12 04:35:14;;;;;;;26.88;15.32;;;5.00;99.90;;;;;;4958490;28;20118;-67
2021/12/12 04:37:41;;;;;;;24.95;15.13;;;4.90;99.90;;;;;;4961812;28;20057;-67
2021/12/12 04:40:13;;;;;;;29.85;14.13;;;4.90;99.90;;;;;;4963567;28;20372;-67
2021/12/12 04:42:41;;;;;;;23.25;14.32;;;4.90;99.90;;;;;;4948745;28;20054;-67
2021/12/12 04:45:18;;;;;;;27.17;13.68;;;5.00;99.90;;;;;;4937328;28;20455;-68
2021/12/12 04:51:03;;;;;;;22.67;13.52;;;5.00;99.90;;;;;;4957123;28;20130;-67
2021/12/12 04:53:32;;;;;;;24.35;13.25;;;4.90;99.90;;;;;;4966559;28;20053;-67
2021/12/12 04:56:24;;;;;;;21.73;13.02;;;5.00;99.90;;;;;;4956224;28;20106;-67
2021/12/12 04:59:07;;;;;;;26.73;13.65;;;5.00;99.90;;;;;;4959826;28;20043;-67
2021/12/12 05:01:57;;;;;;;20.63;11.50;;;5.00;99.90;;;;;;4959340;28;20062;-67
2021/12/12 05:04:46;;;;;;;21.05;12.95;;;5.10;99.90;;;;;;4967246;28;20042;-67
2021/12/12 05:07:13;;;;;;;19.73;11.68;;;5.10;99.90;;;;;;4952482;28;20102;-67
2021/12/12 05:09:54;;;;;;;20.73;11.82;;;5.10;99.90;;;;;;4964462;28;20041;-67
2021/12/12 05:12:29;;;;;;;18.42;11.27;;;5.10;99.90;;;;;;4955799;28;20062;-67
2021/12/12 05:15:09;;;;;;;17.23;11.20;;;5.00;99.90;;;;;;4958480;28;20043;-67
2021/12/12 05:17:46;;;;;;;16.38;10.98;;;5.10;99.90;;;;;;4940521;28;20128;-67
2021/12/12 05:20:28;;;;;;;17.83;9.93;;;5.10;99.90;;;;;;4947137;28;20039;-67
2021/12/12 05:22:55;;;;;;;14.60;9.65;;;5.10;99.90;;;;;;4954640;28;20077;-67
2021/12/12 05:25:27;;;;;;;12.10;9.07;;;5.20;99.90;;;;;;4956982;28;20043;-67
2021/12/12 05:27:55;;;;;;;15.77;10.40;;;5.20;99.90;;;;;;4941078;28;20130;-67
2021/12/12 05:30:25;;;;;;;10.48;8.77;;;5.20;99.90;;;;;;4962582;28;20041;-67
2021/12/12 05:32:52;;;;;;;12.30;8.43;;;5.20;99.90;;;;;;4951520;28;20058;-67
2021/12/12 05:35:21;;;;;;;12.13;9.02;;;5.20;99.90;;;;;;4948476;28;20110;-67
2021/12/12 05:37:52;;;;;;;13.15;9.65;;;5.20;99.90;;;;;;4953175;28;20059;-67
2021/12/12 05:40:20;;;;;;;9.88;8.63;;;5.30;99.90;;;;;;4949903;28;20046;-67
2021/12/12 05:42:47;;;;;;;13.57;9.18;;;5.20;99.90;;;;;;4954355;28;20039;-67
2021/12/12 05:45:14;;;;;;;12.02;8.85;;;5.30;99.90;;;;;;4965446;28;20627;-67
2021/12/12 05:47:40;;;;;;;10.43;8.07;;;5.30;99.90;;;;;;4938797;28;20082;-67
2021/12/12 05:50:08;;;;;;;13.20;9.27;;;5.30;99.90;;;;;;4962628;28;20070;-67
2021/12/12 05:52:34;;;;;;;12.48;7.63;;;5.30;99.90;;;;;;4957200;28;20047;-67
2021/12/12 05:55:04;;;;;;;16.02;9.88;;;5.30;99.90;;;;;;4965153;28;20189;-67
2021/12/12 05:57:30;;;;;;;14.23;9.48;;;5.30;99.90;;;;;;4956118;28;20589;-67
2021/12/12 05:59:57;;;;;;;11.07;8.30;;;5.30;99.90;;;;;;4948412;28;20113;-67
2021/12/12 06:02:24;;;;;;;13.43;9.23;;;5.40;99.90;;;;;;4963877;28;20077;-67
2021/12/12 06:04:53;;;;;;;12.30;9.50;;;5.40;99.90;;;;;;4968231;28;20090;-67
2021/12/12 06:07:21;;;;;;;10.98;9.25;;;5.40;99.90;;;;;;4931567;28;20072;-67
2021/12/12 06:09:49;;;;;;;12.40;8.85;;;5.40;99.90;;;;;;4943272;28;20281;-67
2021/12/12 06:12:16;;;;;;;15.43;9.80;;;5.40;99.90;;;;;;4964398;28;20038;-67
2021/12/12 06:14:43;;;;;;;16.13;10.50;;;5.40;99.90;;;;;;4954628;28;20538;-67
2021/12/12 06:17:13;;;;;;;19.50;12.00;;;5.50;99.90;;;;;;4966481;28;20059;-67
2021/12/12 06:19:41;;;;;;;17.15;10.55;;;5.40;99.90;;;;;;4944028;28;20499;-67
2021/12/12 06:22:09;;;;;;;18.20;11.90;;;5.50;99.90;;;;;;4962689;28;20130;-67
2021/12/12 06:24:37;;;;;;;15.98;11.02;;;5.40;99.90;;;;;;4959849;28;20046;-67
2021/12/12 06:27:19;;;;;;;15.68;11.05;;;5.40;99.90;;;;;;4966034;28;20370;-67
2021/12/12 06:29:49;;;;;;;15.57;9.75;;;5.50;99.90;;;;;;4957689;28;20034;-67
2021/12/12 06:32:15;;;;;;;14.80;10.70;;;5.50;99.90;;;;;;4965726;28;20034;-67
2021/12/12 06:34:42;;;;;;;19.88;10.95;;;5.50;99.90;;;;;;4945209;28;20055;-67
2021/12/12 06:37:09;;;;;;;15.00;10.55;;;5.50;99.90;;;;;;4962260;28;20101;-67
2021/12/12 06:39:35;;;;;;;18.00;11.35;;;5.50;99.90;;;;;;4959511;28;20054;-67
2021/12/12 06:42:03;;;;;;;16.05;11.65;;;5.50;99.90;;;;;;4967689;28;20403;-67
2021/12/12 06:44:29;;;;;;;16.50;11.13;;;5.60;99.90;;;;;;4938824;28;20062;-67
2021/12/12 06:46:56;;;;;;;15.57;11.85;;;5.60;99.90;;;;;;4948869;28;20043;-67
2021/12/12 06:49:24;;;;;;;18.77;11.95;;;5.60;99.90;;;;;;4943845;28;20031;-68
2021/12/12 06:51:57;;;;;;;14.52;10.63;;;5.60;99.90;;;;;;4966141;28;20031;-67
2021/12/12 06:54:25;;;;;;;17.10;10.38;;;5.60;99.90;;;;;;4958579;28;20043;-67
2021/12/12 06:56:54;;;;;;;16.55;11.10;;;5.60;99.90;;;;;;4965563;28;20039;-67
2021/12/12 06:59:25;;;;;;;18.55;11.93;;;5.70;99.90;;;;;;4947367;28;20069;-67
2021/12/12 07:01:52;;;;;;;14.27;11.13;;;5.60;99.90;;;;;;4938010;28;20551;-67
2021/12/12 07:04:19;;;;;;;13.43;9.70;;;5.70;99.90;;;;;;4967030;28;20034;-67
2021/12/12 07:06:47;;;;;;;17.95;12.43;;;5.70;99.90;;;;;;4958245;28;20583;-67
2021/12/12 07:09:15;;;;;;;18.38;11.90;;;5.70;99.90;;;;;;4946038;28;20191;-67
2021/12/12 07:11:41;;;;;;;15.50;10.48;;;5.60;99.90;;;;;;4944501;28;20069;-67
2021/12/12 07:14:10;;;;;;;18.02;12.05;;;5.70;99.90;;;;;;4966175;28;20039;-67
2021/12/12 07:16:36;;;;;;;16.92;11.75;;;5.70;99.90;;;;;;4959060;28;20039;-67
2021/12/12 07:19:05;;;;;;;17.42;11.00;;;5.70;99.90;;;;;;4966256;28;20062;-67
2021/12/12 07:21:31;;;;;;;16.48;11.77;;;5.70;99.90;;;;;;4958852;28;20429;-67
2021/12/12 07:23:59;;;;;;;18.30;11.43;;;5.80;99.90;;;;;;4968567;28;20728;-68
2021/12/12 07:26:26;;;;;;;15.25;10.90;;;5.80;99.90;;;;;;4943998;28;20395;-67
2021/12/12 07:28:54;;;;;;;14.20;11.23;;;5.80;99.90;;;;;;4971775;28;20050;-67
2021/12/12 07:31:23;;;;;;;14.38;10.48;;;5.80;99.90;;;;;;4963390;28;20042;-67
2021/12/12 07:33:54;;;;;;;15.90;10.63;;;5.90;99.90;;;;;;4970986;28;20079;-67
2021/12/12 07:36:20;;;;;;;14.85;10.57;;;5.90;99.90;;;;;;4963504;28;20496;-66
2021/12/12 07:38:51;;;;;;;14.63;10.88;;;6.00;99.90;;;;;;4970928;28;20042;-67
2021/12/12 07:41:19;;;;;;;17.40;12.32;;;6.00;99.90;;;;;;4945022;28;20440;-67
2021/12/12 07:43:45;;;;;;;19.17;11.43;;;6.00;99.90;;;;;;4969615;28;20047;-67
2021/12/12 07:46:11;;;;;;;14.90;11.05;;;6.00;99.90;;;;;;4966937;28;20038;-67
2021/12/12 07:48:39;;;;;;;13.02;9.85;;;6.00;99.90;;;;;;4930629;28;20503;-67
2021/12/12 07:51:06;;;;;;;13.45;10.27;;;6.00;99.90;;;;;;4969710;28;20035;-67
2021/12/12 07:53:33;;;;;;;18.65;12.30;;;6.10;99.90;;;;;;4963195;28;20073;-67
2021/12/12 07:55:59;;;;;;;15.73;10.70;;;6.10;99.90;;;;;;4967594;28;20043;-67
2021/12/12 07:58:26;;;;;;;16.80;10.07;;;6.10;99.90;;;;;;4964595;28;20062;-67
2021/12/12 08:00:55;;;;;;;15.77;10.77;;;6.10;99.90;;;;;;4967877;28;20105;-67
2021/12/12 08:03:24;;;;;;;15.85;10.43;;;6.10;99.90;;;;;;4960373;28;20038;-67
2021/12/12 08:05:50;;;;;;;14.13;9.45;;;6.20;99.90;;;;;;4964030;28;20051;-67
2021/12/12 08:08:16;;;;;;;17.73;11.57;;;6.20;99.90;;;;;;4942387;28;20046;-67
2021/12/12 08:10:45;;;;;;;15.40;11.55;;;6.20;99.90;;;;;;4964138;28;20070;-67
2021/12/12 08:13:12;;;;;;;18.67;11.73;;;6.30;99.90;;;;;;4962786;28;20106;-67
2021/12/12 08:15:39;;;;;;;17.63;11.68;;;6.30;99.90;;;;;;4967999;28;20043;-67
2021/12/12 08:18:07;;;;;;;21.40;13.18;;;6.30;99.90;;;;;;4958091;28;20070;-67
2021/12/12 08:20:34;;;;;;;34.70;16.73;;;6.30;99.90;;;;;;4961477;28;20050;-67
2021/12/12 08:23:00;;;;;;;17.02;12.10;;;6.30;99.90;;;;;;4941650;28;20065;-67
2021/12/12 08:25:27;;;;;;;25.90;15.45;;;6.40;99.90;;;;;;4946802;28;20050;-67
2021/12/12 08:27:57;;;;;;;24.52;14.98;;;6.40;99.90;;;;;;4941657;28;20055;-67
2021/12/12 08:30:24;;;;;;;22.67;13.88;;;6.40;99.90;;;;;;4953458;28;20056;-67
2021/12/12 08:32:51;;;;;;;23.60;13.63;;;6.40;99.90;;;;;;4962165;28;20042;-67
2021/12/12 08:35:20;;;;;;;25.55;14.35;;;6.50;99.90;;;;;;4940384;28;20043;-67
2021/12/12 08:37:49;;;;;;;26.10;14.23;;;6.50;99.90;;;;;;4962536;28;20547;-67
2021/12/12 08:40:25;;;;;;;25.73;15.07;;;6.50;99.90;;;;;;4955344;28;20078;-68
2021/12/12 08:42:52;;;;;;;22.73;15.07;;;6.60;99.90;;;;;;4962441;28;20415;-68
2021/12/12 08:45:23;;;;;;;25.73;16.02;;;6.60;99.90;;;;;;4956746;28;20046;-67
2021/12/12 08:47:50;;;;;;;25.80;15.55;;;6.70;99.90;;;;;;4944994;28;20058;-67
2021/12/12 08:50:20;;;;;;;24.10;14.18;;;6.70;99.90;;;;;;4942460;28;20145;-67
2021/12/12 08:52:48;;;;;;;27.40;15.65;;;6.80;99.90;;;;;;4961220;28;20031;-67
2021/12/12 08:55:23;;;;;;;26.10;14.93;;;6.80;99.90;;;;;;4938841;28;20043;-67
2021/12/12 08:58:03;;;;;;;30.02;16.15;;;6.80;99.90;;;;;;4945519;28;20062;-67
2021/12/12 09:00:34;;;;;;;28.95;16.02;;;6.90;99.90;;;;;;4957604;28;20032;-67
2021/12/12 09:03:00;;;;;;;38.30;17.58;;;6.90;99.90;;;;;;4965275;28;20392;-67
2021/12/12 09:05:30;;;;;;;28.88;16.13;;;6.90;99.90;;;;;;4937393;28;20581;-67
2021/12/12 09:08:05;;;;;;;34.60;18.05;;;7.00;99.90;;;;;;4959322;28;20046;-67
2021/12/12 09:10:55;;;;;;;33.80;17.73;;;7.10;99.90;;;;;;4955623;28;20403;-67
2021/12/12 09:13:26;;;;;;;30.58;17.17;;;7.00;99.90;;;;;;4950667;28;20523;-67
2021/12/12 09:16:15;;;;;;;35.55;18.58;;;7.10;99.90;;;;;;4951774;28;20027;-67
2021/12/12 09:19:07;;;;;;;41.58;20.77;;;7.20;99.90;;;;;;4958214;28;20062;-67
2021/12/12 09:21:57;;;;;;;36.60;19.58;;;7.20;99.90;;;;;;4947723;28;20167;-67
2021/12/12 09:24:46;;;;;;;38.65;20.60;;;7.20;99.90;;;;;;4962555;28;20038;-67
2021/12/12 09:27:25;;;;;;;43.22;21.95;;;7.20;99.90;;;;;;4956089;28;20047;-67
2021/12/12 09:29:52;;;;;;;41.17;21.85;;;7.30;99.90;;;;;;4964585;28;20368;-67
2021/12/12 09:32:51;;;;;;;51.20;22.75;;;7.30;99.90;;;;;;4946787;28;20567;-67
2021/12/12 09:35:29;;;;;;;39.03;19.60;;;7.30;99.90;;;;;;4951368;28;20516;-67
2021/12/12 09:38:01;;;;;;;41.13;20.45;;;7.40;99.90;;;;;;4951699;28;20439;-67
2021/12/12 09:40:36;;;;;;;47.28;21.92;;;7.40;99.90;;;;;;4949620;28;20160;-66
2021/12/12 09:43:20;;;;;;;;;;;7.40;99.90;;;;;;4954392;28;20043;-66
2021/12/12 09:45:46;;;;;;;36.38;20.05;;;7.40;99.90;;;;;;4964117;28;20036;-67
2021/12/12 09:51:15;;;;;;;50.28;23.20;;;7.50;99.90;;;;;;4956350;28;20459;-66
2021/12/12 09:54:05;;;;;;;36.38;20.00;;;7.50;99.90;;;;;;4943562;28;20130;-66
2021/12/12 09:56:56;;;;;;;37.53;20.17;;;7.60;99.90;;;;;;4951974;28;20039;-67
2021/12/12 09:59:39;;;;;;;39.92;21.65;;;7.60;99.90;;;;;;4961485;28;20051;-67
2021/12/12 10:02:35;;;;;;;34.83;19.13;;;7.70;99.90;;;;;;4959708;28;20038;-67
2021/12/12 10:05:08;;;;;;;;;;;7.70;99.90;;;;;;4965486;28;20046;-67
2021/12/12 10:08:19;;;;;;;30.40;17.77;;;7.70;99.90;;;;;;4941224;28;19922;-67
2021/12/12 10:10:52;;;;;;;30.27;18.00;;;7.70;99.90;;;;;;4924498;28;20047;-67
2021/12/12 10:13:37;;;;;;;41.45;20.67;;;7.80;99.90;;;;;;4943847;28;20054;-67
2021/12/12 10:16:23;;;;;;;31.58;17.50;;;7.80;99.90;;;;;;4969655;28;20479;-67
2021/12/12 10:18:56;;;;;;;42.88;20.40;;;7.80;99.90;;;;;;4960490;28;20138;-68
2021/12/12 10:22:02;;;;;;;34.65;18.48;;;7.90;99.90;;;;;;4957950;28;20447;-68
2021/12/12 10:24:29;;;;;;;;;;;7.90;99.90;;;;;;4957931;28;20042;-67
2021/12/12 10:27:19;;;;;;;29.63;16.55;;;7.90;99.90;;;;;;4967574;28;19933;-67
2021/12/12 10:30:10;;;;;;;34.60;18.50;;;8.00;99.90;;;;;;4962253;28;20038;-67
2021/12/12 10:33:05;;;;;;;39.08;19.33;;;8.00;99.90;;;;;;4956385;28;20055;-67
2021/12/12 10:35:38;;;;;;;39.05;19.02;;;8.00;99.90;;;;;;4936332;28;20046;-67
2021/12/12 10:38:29;;;;;;;39.42;18.92;;;8.10;99.90;;;;;;4940293;28;20122;-67
2021/12/12 10:41:01;;;;;;;31.42;17.13;;;8.10;99.90;;;;;;4956604;28;20482;-67
2021/12/12 10:43:35;;;;;;;29.05;16.98;;;8.20;99.90;;;;;;4955678;28;20109;-67
2021/12/12 10:46:18;;;;;;;33.40;18.48;;;8.30;99.90;;;;;;4950037;28;20034;-66
2021/12/12 10:49:01;;;;;;;30.85;16.48;;;8.30;99.90;;;;;;4951781;28;20560;-67
2021/12/12 10:51:29;;;;;;;27.63;16.33;;;8.30;99.90;;;;;;4958735;28;20047;-66
2021/12/12 10:54:13;;;;;;;29.15;17.17;;;8.30;99.90;;;;;;4953266;28;20506;-66
2021/12/12 10:57:01;;;;;;;37.50;17.92;;;8.40;99.90;;;;;;4963037;28;20049;-66
2021/12/12 10:59:35;;;;;;;28.52;15.40;;;8.50;99.90;;;;;;4958839;28;20081;-66
2021/12/12 11:02:11;;;;;;;25.27;15.23;;;8.50;99.90;;;;;;4949961;28;20518;-67
2021/12/12 11:04:51;;;;;;;29.50;16.33;;;8.50;99.90;;;;;;4962940;28;20053;-66
2021/12/12 11:07:24;;;;;;;23.45;13.45;;;8.50;99.90;;;;;;4962625;28;20527;-66
2021/12/12 11:10:19;;;;;;;25.50;14.60;;;8.50;99.90;;;;;;4958904;28;20050;-66
2021/12/12 11:12:48;;;;;;;;;;;8.60;99.90;;;;;;4965994;28;20563;-66
2021/12/12 11:15:29;;;;;;;23.02;14.18;;;8.50;99.90;;;;;;4958325;28;19973;-66
2021/12/12 11:18:04;;;;;;;23.85;14.10;;;8.60;99.90;;;;;;4964024;28;20550;-66
2021/12/12 11:20:44;;;;;;;26.00;14.50;;;8.60;99.90;;;;;;4943662;28;20561;-66
2021/12/12 11:23:17;;;;;;;27.17;15.00;;;8.50;99.90;;;;;;4967109;28;20070;-66
2021/12/12 11:25:59;;;;;;;21.55;13.18;;;8.60;99.90;;;;;;4939954;28;20118;-67
2021/12/12 11:28:28;;;;;;;26.20;15.13;;;8.70;99.90;;;;;;4967669;28;20038;-67
2021/12/12 11:30:55;;;;;;;33.97;17.10;;;8.70;99.90;;;;;;4954943;28;20039;-67
2021/12/12 11:33:23;;;;;;;27.40;14.75;;;8.70;99.90;;;;;;4961606;28;20043;-67
2021/12/12 11:35:56;;;;;;;29.60;15.25;;;8.70;99.90;;;;;;4960516;28;20074;-67
2021/12/12 11:38:38;;;;;;;22.73;13.52;;;8.70;99.90;;;;;;4947486;28;20062;-67
2021/12/12 11:41:29;;;;;;;25.50;14.88;;;8.80;99.90;;;;;;4954734;28;20101;-67
2021/12/12 11:44:19;;;;;;;26.75;12.82;;;8.70;99.90;;;;;;4951841;28;20051;-68
2021/12/12 11:47:19;;;;;;;22.77;12.85;;;8.80;99.90;;;;;;4958990;28;20344;-66
2021/12/12 11:50:00;;;;;;;25.27;14.25;;;8.80;99.90;;;;;;4926285;29;20055;-66
2021/12/12 11:52:57;;;;;;;37.50;17.13;;;8.80;99.90;;;;;;4956855;28;20039;-66
2021/12/12 11:55:37;;;;;;;24.10;13.90;;;8.80;99.90;;;;;;4961277;28;20047;-66
2021/12/12 11:58:18;;;;;;;39.55;16.52;;;8.80;99.90;;;;;;4957763;28;20047;-67
2021/12/12 12:00:52;;;;;;;23.83;13.77;;;8.80;99.90;;;;;;4963537;28;20041;-66
2021/12/12 12:03:33;;;;;;;23.88;13.90;;;8.80;99.90;;;;;;4958291;28;20452;-67
2021/12/12 12:05:58;;;;;;;28.52;14.88;;;8.80;99.90;;;;;;4963303;28;20059;-67
2021/12/12 12:09:02;;;;;;;28.13;16.10;;;8.80;99.90;;;;;;4958649;28;20042;-67
2021/12/12 12:12:01;;;;;;;25.48;15.95;;;8.90;99.90;;;;;;4965011;28;20125;-66
2021/12/12 12:14:30;;;;;;;24.13;14.50;;;9.00;99.90;;;;;;4965623;28;20488;-66
2021/12/12 12:17:07;;;;;;;30.67;15.63;;;8.90;99.90;;;;;;4954734;28;20448;-66
2021/12/12 12:19:58;;;;;;;30.15;16.33;;;9.00;99.90;;;;;;4949111;28;20082;-67
2021/12/12 12:22:32;;;;;;;25.65;15.18;;;9.00;99.90;;;;;;4940042;28;20043;-66
2021/12/12 12:25:22;;;;;;;32.53;16.77;;;9.00;99.90;;;;;;4943069;28;20047;-66
2021/12/12 12:27:55;;;;;;;33.40;16.98;;;9.10;99.90;;;;;;4940022;28;20198;-67
2021/12/12 12:30:58;;;;;;;26.58;15.82;;;9.10;99.90;;;;;;4961194;28;20043;-66
2021/12/12 12:33:42;;;;;;;31.52;15.73;;;9.10;99.90;;;;;;4937971;28;20104;-67
2021/12/12 12:36:23;;;;;;;35.05;17.70;;;9.10;99.90;;;;;;4962191;28;20109;-66
2021/12/12 12:39:26;;;;;;;28.50;15.52;;;9.20;99.90;;;;;;4958086;28;20047;-66
2021/12/12 12:42:29;;;;;;;28.75;15.55;;;9.20;99.90;;;;;;4961455;28;20123;-67
2021/12/12 12:45:35;;;;;;;26.88;15.38;;;9.20;99.90;;;;;;4960548;28;20129;-67
2021/12/12 12:48:13;;;;;;;28.98;15.38;;;9.20;99.90;;;;;;4960934;28;20058;-67
2021/12/12 12:50:42;;;;;;;27.38;14.38;;;9.30;99.90;;;;;;4950560;28;20134;-67
2021/12/12 12:53:23;;;;;;;32.55;16.02;;;9.30;99.90;;;;;;4960604;28;20105;-67
2021/12/12 12:56:25;;;;;;;30.98;16.23;;;9.30;99.90;;;;;;4936940;28;20073;-66
2021/12/12 12:59:05;;;;;;;36.85;18.30;;;9.40;99.90;;;;;;4956595;28;20400;-67
2021/12/12 13:01:56;;;;;;;37.92;18.85;;;9.30;99.90;;;;;;4961741;28;20039;-67
2021/12/12 13:04:53;;;;;;;49.35;20.05;;;9.40;99.90;;;;;;4956550;28;20043;-67
2021/12/12 13:07:41;;;;;;;45.67;18.77;;;9.40;99.90;;;;;;4938943;28;20047;-67
2021/12/12 13:10:13;;;;;;;45.08;20.20;;;9.40;99.90;;;;;;4956830;28;20512;-67
2021/12/12 13:12:56;;;;;;;30.38;16.77;;;9.40;99.90;;;;;;4962769;28;20499;-67
2021/12/12 13:15:39;;;;;;;52.30;19.90;;;9.40;99.90;;;;;;4957449;28;20034;-67
2021/12/12 13:18:34;;;;;;;38.05;18.70;;;9.50;99.90;;;;;;4959544;28;20051;-67
2021/12/12 13:21:41;;;;;;;34.15;17.42;;;9.50;99.90;;;;;;4952719;28;20059;-67
2021/12/12 13:24:15;;;;;;;46.00;18.67;;;9.50;99.90;;;;;;4911872;28;20043;-67
2021/12/12 13:27:29;;;;;;;68.13;22.25;;;9.50;99.90;;;;;;4954034;28;20155;-68
2021/12/12 13:30:13;;;;;;;30.73;14.82;;;9.50;99.90;;;;;;4946084;28;20042;-67